sensor_id;sensor_type;location;lat;lon;timestamp;pressure;altitude;pressure_sealevel;temperature;humidity
70968;BME280;58629;48.808;8.820;2023-03-21T00:02:10;97358.72;;;8.02;97.16
70968;BME280;58629;48.808;8.820;2023-03-21T00:04:36;97358.72;;;8.02;98.01
70968;BME280;58629;48.808;8.820;2023-03-21T00:07:01;97356.09;;;7.98;97.46
70968;BME280;58629;48.808;8.820;2023-03-21T00:09:27;97347.44;;;7.98;98.29
70968;BME280;58629;48.808;8.820;2023-03-21T00:11:52;97342.19;;;7.94;97.23
70968;BME280;58629;48.808;8.820;2023-03-21T00:14:17;97344.81;;;7.94;97.92
70968;BME280;58629;48.808;8.820;2023-03-21T00:16:44;97347.06;;;7.96;97.94
70968;BME280;58629;48.808;8.820;2023-03-21T00:19:10;97337.28;;;7.89;98.45
70968;BME280;58629;48.808;8.820;2023-03-21T00:21:36;97339.94;;;7.85;98.75
70968;BME280;58629;48.808;8.820;2023-03-21T00:24:03;97342.16;;;7.90;99.76
70968;BME280;58629;48.808;8.820;2023-03-21T00:26:29;97335.78;;;7.92;98.63
70968;BME280;58629;48.808;8.820;2023-03-21T00:28:55;97339.91;;;7.93;98.82
70968;BME280;58629;48.808;8.820;2023-03-21T00:31:21;97335.03;;;7.91;98.23
70968;BME280;58629;48.808;8.820;2023-03-21T00:33:47;97332.75;;;7.93;97.90
70968;BME280;58629;48.808;8.820;2023-03-21T00:36:12;97327.47;;;7.93;97.85
70968;BME280;58629;48.808;8.820;2023-03-21T00:38:38;97324.88;;;7.89;97.42
70968;BME280;58629;48.808;8.820;2023-03-21T00:41:05;97327.09;;;7.91;98.11
70968;BME280;58629;48.808;8.820;2023-03-21T00:43:31;97323.72;;;7.87;98.07
70968;BME280;58629;48.808;8.820;2023-03-21T00:45:57;97322.25;;;7.86;99.09
70968;BME280;58629;48.808;8.820;2023-03-21T00:48:24;97314.69;;;7.84;98.82
70968;BME280;58629;48.808;8.820;2023-03-21T00:50:51;97313.97;;;7.80;98.02
70968;BME280;58629;48.808;8.820;2023-03-21T00:53:18;97314.38;;;7.75;98.04
70968;BME280;58629;48.808;8.820;2023-03-21T00:55:44;97310.97;;;7.75;100.00
70968;BME280;58629;48.808;8.820;2023-03-21T00:58:09;97307.22;;;7.76;99.87
70968;BME280;58629;48.808;8.820;2023-03-21T01:00:35;97304.59;;;7.72;99.90
70968;BME280;58629;48.808;8.820;2023-03-21T01:03:02;97304.63;;;7.65;100.00
70968;BME280;58629;48.808;8.820;2023-03-21T01:05:32;97296.34;;;7.60;100.00
70968;BME280;58629;48.808;8.820;2023-03-21T01:08:17;97298.22;;;7.59;100.00
70968;BME280;58629;48.808;8.820;2023-03-21T01:10:44;97298.59;;;7.61;100.00
70968;BME280;58629;48.808;8.820;2023-03-21T01:13:12;97292.22;;;7.62;100.00
70968;BME280;58629;48.808;8.820;2023-03-21T01:15:43;97288.81;;;7.65;100.00
70968;BME280;58629;48.808;8.820;2023-03-21T01:18:09;97296.31;;;7.67;100.00
70968;BME280;58629;48.808;8.820;2023-03-21T01:20:35;97291.44;;;7.72;100.00
70968;BME280;58629;48.808;8.820;2023-03-21T01:23:00;97286.91;;;7.69;99.89
70968;BME280;58629;48.808;8.820;2023-03-21T01:25:26;97284.66;;;7.68;98.49
70968;BME280;58629;48.808;8.820;2023-03-21T01:27:51;97284.28;;;7.66;97.03
70968;BME280;58629;48.808;8.820;2023-03-21T01:30:18;97284.28;;;7.66;97.36
70968;BME280;58629;48.808;8.820;2023-03-21T01:32:44;97295.22;;;7.64;97.18
70968;BME280;58629;48.808;8.820;2023-03-21T01:35:09;97293.34;;;7.61;96.99
70968;BME280;58629;48.808;8.820;2023-03-21T01:37:34;97296.72;;;7.62;97.81
70968;BME280;58629;48.808;8.820;2023-03-21T01:39:59;97289.94;;;7.64;99.21
70968;BME280;58629;48.808;8.820;2023-03-21T01:42:25;97291.03;;;7.67;98.69
70968;BME280;58629;48.808;8.820;2023-03-21T01:44:56;97293.31;;;7.65;98.92
70968;BME280;58629;48.808;8.820;2023-03-21T01:47:22;97285.03;;;7.66;98.92
70968;BME280;58629;48.808;8.820;2023-03-21T01:49:50;97289.19;;;7.64;98.44
70968;BME280;58629;48.808;8.820;2023-03-21T01:52:19;97290.31;;;7.59;99.24
70968;BME280;58629;48.808;8.820;2023-03-21T01:54:48;97293.75;;;7.46;99.90
70968;BME280;58629;48.808;8.820;2023-03-21T01:57:21;97277.56;;;7.47;100.00
70968;BME280;58629;48.808;8.820;2023-03-21T01:59:54;97287.38;;;7.43;100.00
70968;BME280;58629;48.808;8.820;2023-03-21T02:02:43;97286.59;;;7.43;100.00
70968;BME280;58629;48.808;8.820;2023-03-21T02:05:16;97286.25;;;7.34;99.64
70968;BME280;58629;48.808;8.820;2023-03-21T02:07:43;97281.41;;;7.29;100.00
70968;BME280;58629;48.808;8.820;2023-03-21T02:10:11;97285.53;;;7.30;100.00
70968;BME280;58629;48.808;8.820;2023-03-21T02:12:38;97281.81;;;7.17;100.00
70968;BME280;58629;48.808;8.820;2023-03-21T02:15:04;97271.63;;;7.19;100.00
70968;BME280;58629;48.808;8.820;2023-03-21T02:17:52;97265.59;;;7.25;100.00
70968;BME280;58629;48.808;8.820;2023-03-21T02:29:07;97258.41;;;7.40;100.00
70968;BME280;58629;48.808;8.820;2023-03-21T02:37:21;97255.03;;;7.36;100.00
70968;BME280;58629;48.808;8.820;2023-03-21T02:40:07;97255.06;;;7.29;100.00
70968;BME280;58629;48.808;8.820;2023-03-21T02:45:50;97263.72;;;7.22;100.00
70968;BME280;58629;48.808;8.820;2023-03-21T02:48:24;97252.81;;;7.20;100.00
70968;BME280;58629;48.808;8.820;2023-03-21T02:50:52;97256.22;;;7.21;100.00
70968;BME280;58629;48.808;8.820;2023-03-21T02:53:23;97253.56;;;7.17;100.00
70968;BME280;58629;48.808;8.820;2023-03-21T02:55:50;97253.56;;;7.21;100.00
70968;BME280;58629;48.808;8.820;2023-03-21T02:58:22;97248.28;;;7.24;100.00
70968;BME280;58629;48.808;8.820;2023-03-21T03:00:48;97244.16;;;7.27;100.00
70968;BME280;58629;48.808;8.820;2023-03-21T03:03:14;97246.03;;;7.23;100.00
70968;BME280;58629;48.808;8.820;2023-03-21T03:05:48;97246.78;;;7.23;100.00
70968;BME280;58629;48.808;8.820;2023-03-21T03:08:23;97245.28;;;7.22;100.00
70968;BME280;58629;48.808;8.820;2023-03-21T03:19:10;97232.88;;;7.19;100.00
70968;BME280;58629;48.808;8.820;2023-03-21T03:21:43;97236.25;;;7.20;100.00
70968;BME280;58629;48.808;8.820;2023-03-21T03:26:56;97235.50;;;7.23;100.00
70968;BME280;58629;48.808;8.820;2023-03-21T03:29:25;97231.72;;;7.24;100.00
70968;BME280;58629;48.808;8.820;2023-03-21T03:31:59;97231.72;;;7.24;100.00
70968;BME280;58629;48.808;8.820;2023-03-21T03:34:31;97223.44;;;7.25;99.84
70968;BME280;58629;48.808;8.820;2023-03-21T03:37:02;97232.84;;;7.26;99.77
70968;BME280;58629;48.808;8.820;2023-03-21T03:39:35;97233.97;;;7.25;100.00
70968;BME280;58629;48.808;8.820;2023-03-21T03:42:05;97234.38;;;7.24;100.00
70968;BME280;58629;48.808;8.820;2023-03-21T03:44:32;97230.22;;;7.19;99.87
70968;BME280;58629;48.808;8.820;2023-03-21T03:47:04;97233.25;;;7.14;99.47
70968;BME280;58629;48.808;8.820;2023-03-21T03:49:35;97230.28;;;7.01;99.53
70968;BME280;58629;48.808;8.820;2023-03-21T03:52:18;97233.31;;;6.89;100.00
70968;BME280;58629;48.808;8.820;2023-03-21T03:54:46;97227.34;;;6.75;100.00
70968;BME280;58629;48.808;8.820;2023-03-21T03:57:13;97228.47;;;6.67;100.00
70968;BME280;58629;48.808;8.820;2023-03-21T03:59:41;97231.47;;;6.62;100.00
70968;BME280;58629;48.808;8.820;2023-03-21T04:02:07;97232.97;;;6.52;100.00
70968;BME280;58629;48.808;8.820;2023-03-21T04:04:33;97239.00;;;6.49;100.00
70968;BME280;58629;48.808;8.820;2023-03-21T04:06:59;97226.97;;;6.48;100.00
70968;BME280;58629;48.808;8.820;2023-03-21T04:09:27;97233.38;;;6.44;100.00
70968;BME280;58629;48.808;8.820;2023-03-21T04:11:53;97229.59;;;6.41;100.00
70968;BME280;58629;48.808;8.820;2023-03-21T04:14:19;97231.88;;;6.36;100.00
70968;BME280;58629;48.808;8.820;2023-03-21T04:16:45;97235.63;;;6.31;100.00
70968;BME280;58629;48.808;8.820;2023-03-21T04:19:10;97235.63;;;6.31;100.00
70968;BME280;58629;48.808;8.820;2023-03-21T04:21:36;97219.84;;;6.31;100.00
70968;BME280;58629;48.808;8.820;2023-03-21T04:24:01;97222.47;;;6.28;100.00
70968;BME280;58629;48.808;8.820;2023-03-21T04:26:26;97230.34;;;6.28;100.00
70968;BME280;58629;48.808;8.820;2023-03-21T04:28:57;97223.19;;;6.25;100.00
70968;BME280;58629;48.808;8.820;2023-03-21T04:31:25;97221.72;;;6.24;100.00
70968;BME280;58629;48.808;8.820;2023-03-21T04:33:55;97217.56;;;6.19;100.00
70968;BME280;58629;48.808;8.820;2023-03-21T04:36:20;97212.31;;;6.16;100.00
70968;BME280;58629;48.808;8.820;2023-03-21T04:38:51;97216.06;;;6.14;100.00
70968;BME280;58629;48.808;8.820;2023-03-21T04:41:17;97222.06;;;6.08;100.00
70968;BME280;58629;48.808;8.820;2023-03-21T04:43:43;97224.69;;;5.97;99.69
70968;BME280;58629;48.808;8.820;2023-03-21T04:46:08;97217.53;;;5.94;100.00
70968;BME280;58629;48.808;8.820;2023-03-21T04:48:34;97218.28;;;5.95;100.00
70968;BME280;58629;48.808;8.820;2023-03-21T04:50:59;97209.63;;;5.91;100.00
70968;BME280;58629;48.808;8.820;2023-03-21T04:53:24;97216.00;;;5.86;100.00
70968;BME280;58629;48.808;8.820;2023-03-21T04:55:50;97218.22;;;5.81;100.00
70968;BME280;58629;48.808;8.820;2023-03-21T04:58:15;97215.97;;;5.72;100.00
70968;BME280;58629;48.808;8.820;2023-03-21T05:00:41;97214.44;;;5.71;100.00
70968;BME280;58629;48.808;8.820;2023-03-21T05:03:06;97221.56;;;5.67;100.00
70968;BME280;58629;48.808;8.820;2023-03-21T05:05:34;97214.41;;;5.61;100.00
70968;BME280;58629;48.808;8.820;2023-03-21T05:08:00;97222.28;;;5.57;100.00
70968;BME280;58629;48.808;8.820;2023-03-21T05:10:25;97221.91;;;5.52;100.00
70968;BME280;58629;48.808;8.820;2023-03-21T05:12:50;97223.38;;;5.53;100.00
70968;BME280;58629;48.808;8.820;2023-03-21T05:15:16;97221.91;;;5.55;100.00
70968;BME280;58629;48.808;8.820;2023-03-21T05:17:41;97228.31;;;5.58;100.00
70968;BME280;58629;48.808;8.820;2023-03-21T05:20:08;97217.41;;;5.59;100.00
70968;BME280;58629;48.808;8.820;2023-03-21T05:22:35;97216.69;;;5.62;100.00
70968;BME280;58629;48.808;8.820;2023-03-21T05:25:08;97220.81;;;5.63;100.00
70968;BME280;58629;48.808;8.820;2023-03-21T05:27:34;97216.31;;;5.64;99.91
70968;BME280;58629;48.808;8.820;2023-03-21T05:30:11;97215.56;;;5.60;99.52
70968;BME280;58629;48.808;8.820;2023-03-21T05:32:37;97216.28;;;5.53;99.02
70968;BME280;58629;48.808;8.820;2023-03-21T05:35:03;97222.28;;;5.50;99.52
70968;BME280;58629;48.808;8.820;2023-03-21T05:37:29;97220.00;;;5.49;100.00
70968;BME280;58629;48.808;8.820;2023-03-21T05:39:54;97218.50;;;5.48;100.00
70968;BME280;58629;48.808;8.820;2023-03-21T05:42:20;97217.75;;;5.44;99.60
70968;BME280;58629;48.808;8.820;2023-03-21T05:44:46;97218.50;;;5.41;99.55
70968;BME280;58629;48.808;8.820;2023-03-21T05:47:12;97226.00;;;5.46;100.00
70968;BME280;58629;48.808;8.820;2023-03-21T05:49:38;97231.66;;;5.51;100.00
70968;BME280;58629;48.808;8.820;2023-03-21T05:52:03;97226.41;;;5.55;100.00
70968;BME280;58629;48.808;8.820;2023-03-21T05:54:29;97223.81;;;5.58;100.00
70968;BME280;58629;48.808;8.820;2023-03-21T05:56:54;97224.91;;;5.57;99.79
70968;BME280;58629;48.808;8.820;2023-03-21T05:59:19;97231.66;;;5.51;100.00
70968;BME280;58629;48.808;8.820;2023-03-21T06:01:45;97233.13;;;5.49;100.00
70968;BME280;58629;48.808;8.820;2023-03-21T06:04:10;97230.69;;;6.01;100.00
70968;BME280;58629;48.808;8.820;2023-03-21T06:06:36;97234.09;;;6.41;100.00
70968;BME280;58629;48.808;8.820;2023-03-21T06:09:01;97234.09;;;6.86;100.00
70968;BME280;58629;48.808;8.820;2023-03-21T06:11:32;97223.81;;;7.31;100.00
70968;BME280;58629;48.808;8.820;2023-03-21T06:13:58;97226.66;;;7.68;100.00
70968;BME280;58629;48.808;8.820;2023-03-21T06:16:24;97221.63;;;7.95;97.00
70968;BME280;58629;48.808;8.820;2023-03-21T06:18:49;97220.69;;;8.22;94.18
70968;BME280;58629;48.808;8.820;2023-03-21T06:21:14;97219.03;;;8.46;91.95
70968;BME280;58629;48.808;8.820;2023-03-21T06:23:40;97222.63;;;8.66;89.91
70968;BME280;58629;48.808;8.820;2023-03-21T06:26:06;97218.38;;;8.75;88.14
70968;BME280;58629;48.808;8.820;2023-03-21T06:28:31;97209.97;;;8.88;87.73
70968;BME280;58629;48.808;8.820;2023-03-21T06:30:57;97213.59;;;9.04;86.85
70968;BME280;58629;48.808;8.820;2023-03-21T06:33:22;97210.94;;;9.04;85.03
70968;BME280;58629;48.808;8.820;2023-03-21T06:35:55;97212.44;;;9.05;83.79
70968;BME280;58629;48.808;8.820;2023-03-21T06:38:21;97216.91;;;9.12;84.31
70968;BME280;58629;48.808;8.820;2023-03-21T06:40:47;97218.78;;;9.15;82.73
70968;BME280;58629;48.808;8.820;2023-03-21T06:43:13;97215.38;;;9.14;83.53
70968;BME280;58629;48.808;8.820;2023-03-21T06:45:40;97214.16;;;9.22;83.50
70968;BME280;58629;48.808;8.820;2023-03-21T06:48:05;97218.56;;;9.32;82.62
70968;BME280;58629;48.808;8.820;2023-03-21T06:50:30;97213.47;;;9.48;82.22
70968;BME280;58629;48.808;8.820;2023-03-21T06:52:56;97209.59;;;9.56;81.03
70968;BME280;58629;48.808;8.820;2023-03-21T06:55:25;97211.75;;;9.65;80.72
70968;BME280;58629;48.808;8.820;2023-03-21T06:57:55;97210.84;;;9.75;80.21
70968;BME280;58629;48.808;8.820;2023-03-21T07:00:21;97212.31;;;9.80;79.83
70968;BME280;58629;48.808;8.820;2023-03-21T07:02:47;97207.47;;;10.01;78.75
70968;BME280;58629;48.808;8.820;2023-03-21T07:05:13;97216.38;;;10.14;78.09
70968;BME280;58629;48.808;8.820;2023-03-21T07:07:39;97206.81;;;10.24;76.99
70968;BME280;58629;48.808;8.820;2023-03-21T07:10:05;97216.06;;;10.35;76.29
70968;BME280;58629;48.808;8.820;2023-03-21T07:12:32;97211.00;;;10.44;76.49
70968;BME280;58629;48.808;8.820;2023-03-21T07:15:04;97219.53;;;10.56;75.52
70968;BME280;58629;48.808;8.820;2023-03-21T07:17:31;97211.34;;;10.70;75.38
70968;BME280;58629;48.808;8.820;2023-03-21T07:19:56;97211.16;;;10.80;74.24
70968;BME280;58629;48.808;8.820;2023-03-21T07:22:22;97217.69;;;10.95;73.33
70968;BME280;58629;48.808;8.820;2023-03-21T07:24:47;97217.53;;;11.06;72.64
70968;BME280;58629;48.808;8.820;2023-03-21T07:27:13;97210.75;;;11.24;72.20
70968;BME280;58629;48.808;8.820;2023-03-21T07:29:39;97205.97;;;11.35;72.04
70968;BME280;58629;48.808;8.820;2023-03-21T07:32:05;97211.06;;;11.46;70.05
70968;BME280;58629;48.808;8.820;2023-03-21T07:34:30;97213.19;;;11.55;70.31
70968;BME280;58629;48.808;8.820;2023-03-21T07:36:57;97197.53;;;11.60;69.35
70968;BME280;58629;48.808;8.820;2023-03-21T07:39:23;97202.72;;;11.67;69.76
70968;BME280;58629;48.808;8.820;2023-03-21T07:41:48;97207.88;;;11.74;68.69
70968;BME280;58629;48.808;8.820;2023-03-21T07:44:13;97195.84;;;11.70;68.69
70968;BME280;58629;48.808;8.820;2023-03-21T07:46:39;97199.91;;;11.74;68.39
70968;BME280;58629;48.808;8.820;2023-03-21T07:49:05;97199.69;;;11.85;67.97
70968;BME280;58629;48.808;8.820;2023-03-21T07:51:30;97198.28;;;11.96;67.50
70968;BME280;58629;48.808;8.820;2023-03-21T07:53:56;97207.78;;;12.13;67.47
70968;BME280;58629;48.808;8.820;2023-03-21T07:56:21;97202.16;;;12.28;67.12
70968;BME280;58629;48.808;8.820;2023-03-21T07:58:46;97203.72;;;12.41;66.56
70968;BME280;58629;48.808;8.820;2023-03-21T08:01:12;97202.19;;;12.40;66.52
70968;BME280;58629;48.808;8.820;2023-03-21T08:03:37;97203.13;;;12.50;65.46
70968;BME280;58629;48.808;8.820;2023-03-21T08:06:02;97212.91;;;12.69;65.16
70968;BME280;58629;48.808;8.820;2023-03-21T08:08:28;97208.78;;;12.52;64.61
70968;BME280;58629;48.808;8.820;2023-03-21T08:10:53;97209.44;;;12.40;65.92
70968;BME280;58629;48.808;8.820;2023-03-21T08:13:19;97203.13;;;12.34;63.61
70968;BME280;58629;48.808;8.820;2023-03-21T08:15:44;97196.56;;;12.54;64.47
70968;BME280;58629;48.808;8.820;2023-03-21T08:18:10;97198.03;;;12.71;64.66
70968;BME280;58629;48.808;8.820;2023-03-21T08:20:36;97204.28;;;12.93;63.48
70968;BME280;58629;48.808;8.820;2023-03-21T08:23:01;97204.28;;;12.65;62.15
70968;BME280;58629;48.808;8.820;2023-03-21T08:25:26;97196.16;;;12.40;62.29
70968;BME280;58629;48.808;8.820;2023-03-21T08:27:52;97188.09;;;12.43;61.90
70968;BME280;58629;48.808;8.820;2023-03-21T08:30:20;97187.84;;;12.05;62.17
70968;BME280;58629;48.808;8.820;2023-03-21T08:32:46;97186.84;;;11.99;63.61
70968;BME280;58629;48.808;8.820;2023-03-21T08:35:14;97189.59;;;12.44;64.61
70968;BME280;58629;48.808;8.820;2023-03-21T08:37:41;97187.63;;;12.93;62.66
70968;BME280;58629;48.808;8.820;2023-03-21T08:40:10;97184.72;;;12.87;61.05
70968;BME280;58629;48.808;8.820;2023-03-21T08:42:38;97180.56;;;12.86;60.55
70968;BME280;58629;48.808;8.820;2023-03-21T08:45:04;97182.59;;;12.66;58.74
70968;BME280;58629;48.808;8.820;2023-03-21T08:47:30;97178.53;;;13.07;61.46
70968;BME280;58629;48.808;8.820;2023-03-21T08:49:56;97178.09;;;13.49;59.14
70968;BME280;58629;48.808;8.820;2023-03-21T08:52:21;97180.25;;;13.67;58.35
70968;BME280;58629;48.808;8.820;2023-03-21T08:54:46;97176.88;;;14.04;57.66
70968;BME280;58629;48.808;8.820;2023-03-21T08:57:12;97183.75;;;14.27;57.06
70968;BME280;58629;48.808;8.820;2023-03-21T08:59:39;97179.63;;;14.38;55.94
70968;BME280;58629;48.808;8.820;2023-03-21T09:02:04;97179.59;;;14.51;54.24
70968;BME280;58629;48.808;8.820;2023-03-21T09:04:29;97175.28;;;14.66;55.37
70968;BME280;58629;48.808;8.820;2023-03-21T09:06:55;97172.41;;;14.95;55.33
70968;BME280;58629;48.808;8.820;2023-03-21T09:09:21;97167.41;;;15.18;54.89
70968;BME280;58629;48.808;8.820;2023-03-21T09:11:46;97161.59;;;15.41;54.01
70968;BME280;58629;48.808;8.820;2023-03-21T09:14:11;97162.47;;;15.60;52.74
70968;BME280;58629;48.808;8.820;2023-03-21T09:16:36;97158.41;;;15.25;52.70
70968;BME280;58629;48.808;8.820;2023-03-21T09:19:02;97166.56;;;15.43;52.85
70968;BME280;58629;48.808;8.820;2023-03-21T09:21:29;97163.00;;;15.03;50.06
70968;BME280;58629;48.808;8.820;2023-03-21T09:23:55;97166.59;;;15.09;54.22
70968;BME280;58629;48.808;8.820;2023-03-21T09:26:24;97171.63;;;15.28;54.03
70968;BME280;58629;48.808;8.820;2023-03-21T09:28:50;97165.53;;;15.28;53.39
70968;BME280;58629;48.808;8.820;2023-03-21T09:31:17;97167.13;;;15.47;52.95
70968;BME280;58629;48.808;8.820;2023-03-21T09:33:51;97173.94;;;15.70;52.29
70968;BME280;58629;48.808;8.820;2023-03-21T09:36:17;97165.97;;;15.79;51.79
70968;BME280;58629;48.808;8.820;2023-03-21T09:38:46;97164.50;;;15.78;50.50
70968;BME280;58629;48.808;8.820;2023-03-21T09:41:30;97168.28;;;15.68;51.82
70968;BME280;58629;48.808;8.820;2023-03-21T09:44:19;97169.50;;;15.67;50.63
70968;BME280;58629;48.808;8.820;2023-03-21T09:49:47;97163.31;;;15.48;51.56
70968;BME280;58629;48.808;8.820;2023-03-21T09:55:23;97162.03;;;15.40;50.27
70968;BME280;58629;48.808;8.820;2023-03-21T10:00:28;97159.69;;;14.77;51.61
70968;BME280;58629;48.808;8.820;2023-03-21T10:02:59;97154.69;;;14.79;53.18
70968;BME280;58629;48.808;8.820;2023-03-21T10:05:30;97159.88;;;14.83;52.61
70968;BME280;58629;48.808;8.820;2023-03-21T10:08:03;97149.41;;;14.54;52.65
70968;BME280;58629;48.808;8.820;2023-03-21T10:10:44;97151.94;;;14.36;52.99
70968;BME280;58629;48.808;8.820;2023-03-21T10:13:16;97150.97;;;14.17;51.99
70968;BME280;58629;48.808;8.820;2023-03-21T10:15:41;97157.81;;;14.06;52.65
70968;BME280;58629;48.808;8.820;2023-03-21T10:18:09;97159.41;;;13.90;50.78
70968;BME280;58629;48.808;8.820;2023-03-21T10:20:41;97152.38;;;13.97;52.40
70968;BME280;58629;48.808;8.820;2023-03-21T10:23:11;97145.75;;;14.14;53.12
70968;BME280;58629;48.808;8.820;2023-03-21T10:25:43;97150.44;;;14.10;52.47
70968;BME280;58629;48.808;8.820;2023-03-21T10:28:19;97146.06;;;14.28;53.80
70968;BME280;58629;48.808;8.820;2023-03-21T10:30:52;97143.81;;;14.27;53.05
70968;BME280;58629;48.808;8.820;2023-03-21T10:33:20;97142.84;;;14.46;53.36
70968;BME280;58629;48.808;8.820;2023-03-21T10:35:52;97139.50;;;14.54;54.55
70968;BME280;58629;48.808;8.820;2023-03-21T10:38:22;97141.19;;;14.61;52.80
70968;BME280;58629;48.808;8.820;2023-03-21T10:40:48;97141.06;;;14.64;51.80
70968;BME280;58629;48.808;8.820;2023-03-21T10:45:50;97138.41;;;14.64;51.51
70968;BME280;58629;48.808;8.820;2023-03-21T10:48:17;97135.88;;;14.61;51.54
70968;BME280;58629;48.808;8.820;2023-03-21T10:50:46;97133.25;;;14.70;53.49
70968;BME280;58629;48.808;8.820;2023-03-21T10:53:20;97135.84;;;14.73;53.05
70968;BME280;58629;48.808;8.820;2023-03-21T10:55:49;97139.53;;;14.76;52.53
70968;BME280;58629;48.808;8.820;2023-03-21T10:58:21;97140.16;;;14.80;52.97
70968;BME280;58629;48.808;8.820;2023-03-21T11:01:09;97135.56;;;14.81;52.27
70968;BME280;58629;48.808;8.820;2023-03-21T11:03:41;97130.13;;;14.84;51.55
70968;BME280;58629;48.808;8.820;2023-03-21T11:06:38;97129.13;;;14.91;51.88
70968;BME280;58629;48.808;8.820;2023-03-21T11:09:11;97124.72;;;14.75;50.11
70968;BME280;58629;48.808;8.820;2023-03-21T11:11:40;97127.63;;;14.68;50.29
70968;BME280;58629;48.808;8.820;2023-03-21T11:14:12;97123.34;;;14.70;50.52
70968;BME280;58629;48.808;8.820;2023-03-21T11:16:48;97124.28;;;14.76;52.06
70968;BME280;58629;48.808;8.820;2023-03-21T11:19:24;97120.19;;;14.85;52.33
70968;BME280;58629;48.808;8.820;2023-03-21T11:21:51;97125.41;;;14.88;52.91
70968;BME280;58629;48.808;8.820;2023-03-21T11:24:17;97117.59;;;14.94;52.82
70968;BME280;58629;48.808;8.820;2023-03-21T11:26:45;97113.44;;;14.93;52.17
70968;BME280;58629;48.808;8.820;2023-03-21T11:32:24;97117.50;;;14.75;50.49
70968;BME280;58629;48.808;8.820;2023-03-21T11:34:55;97115.72;;;14.60;51.93
70968;BME280;58629;48.808;8.820;2023-03-21T11:37:29;97116.28;;;14.55;51.62
70968;BME280;58629;48.808;8.820;2023-03-21T11:43:03;97102.34;;;14.72;53.36
70968;BME280;58629;48.808;8.820;2023-03-21T11:45:31;97104.88;;;14.76;53.31
70968;BME280;58629;48.808;8.820;2023-03-21T11:47:59;97087.59;;;14.81;53.23
70968;BME280;58629;48.808;8.820;2023-03-21T11:50:32;97087.63;;;14.90;54.73
70968;BME280;58629;48.808;8.820;2023-03-21T11:53:09;97091.53;;;14.98;54.83
70968;BME280;58629;48.808;8.820;2023-03-21T12:01:12;97083.44;;;15.01;54.16
70968;BME280;58629;48.808;8.820;2023-03-21T12:04:17;97075.84;;;15.00;51.80
70968;BME280;58629;48.808;8.820;2023-03-21T12:10:24;97068.91;;;15.02;50.20
70968;BME280;58629;48.808;8.820;2023-03-21T12:15:59;97055.75;;;15.38;51.48
70968;BME280;58629;48.808;8.820;2023-03-21T12:21:10;97047.66;;;16.09;50.72
70968;BME280;58629;48.808;8.820;2023-03-21T12:26:30;97041.72;;;16.14;48.34
70968;BME280;58629;48.808;8.820;2023-03-21T12:31:53;97038.75;;;16.48;48.83
70968;BME280;58629;48.808;8.820;2023-03-21T12:37:29;97029.63;;;17.00;49.05
70968;BME280;58629;48.808;8.820;2023-03-21T12:40:11;97025.13;;;17.15;48.50
70968;BME280;58629;48.808;8.820;2023-03-21T12:45:40;97018.28;;;17.14;48.81
70968;BME280;58629;48.808;8.820;2023-03-21T12:48:16;97020.50;;;17.24;47.20
70968;BME280;58629;48.808;8.820;2023-03-21T12:50:44;97018.75;;;17.45;49.78
70968;BME280;58629;48.808;8.820;2023-03-21T12:56:18;97021.66;;;17.32;48.56
70968;BME280;58629;48.808;8.820;2023-03-21T12:58:53;97017.38;;;16.39;49.24
70968;BME280;58629;48.808;8.820;2023-03-21T13:01:23;97011.59;;;16.31;50.36
70968;BME280;58629;48.808;8.820;2023-03-21T13:04:20;97006.38;;;15.92;50.56
70968;BME280;58629;48.808;8.820;2023-03-21T13:06:42;97017.97;;;15.98;50.66
70968;BME280;58629;48.808;8.820;2023-03-21T13:09:19;97014.41;;;15.92;51.25
70968;BME280;58629;48.808;8.820;2023-03-21T13:11:50;97014.66;;;15.85;50.93
70968;BME280;58629;48.808;8.820;2023-03-21T13:14:24;97015.59;;;16.00;51.47
70968;BME280;58629;48.808;8.820;2023-03-21T13:16:56;97014.97;;;15.69;51.70
70968;BME280;58629;48.808;8.820;2023-03-21T13:20:20;97013.75;;;15.60;51.44
70968;BME280;58629;48.808;8.820;2023-03-21T13:22:47;97007.13;;;15.34;56.05
70968;BME280;58629;48.808;8.820;2023-03-21T13:25:23;97008.53;;;15.48;52.17
70968;BME280;58629;48.808;8.820;2023-03-21T13:27:53;97010.59;;;15.53;52.93
70968;BME280;58629;48.808;8.820;2023-03-21T13:30:23;97016.56;;;14.96;54.40
70968;BME280;58629;48.808;8.820;2023-03-21T13:33:13;97013.59;;;14.94;55.48
70968;BME280;58629;48.808;8.820;2023-03-21T13:35:40;97006.81;;;15.02;55.13
70968;BME280;58629;48.808;8.820;2023-03-21T13:38:14;97001.09;;;15.12;54.70
70968;BME280;58629;48.808;8.820;2023-03-21T13:40:51;96989.53;;;15.15;53.17
70968;BME280;58629;48.808;8.820;2023-03-21T13:43:53;96973.28;;;15.22;53.52
70968;BME280;58629;48.808;8.820;2023-03-21T13:54:15;96977.91;;;15.31;54.50
70968;BME280;58629;48.808;8.820;2023-03-21T14:04:26;96963.13;;;14.99;57.12
70968;BME280;58629;48.808;8.820;2023-03-21T14:07:00;96966.66;;;14.96;56.19
70968;BME280;58629;48.808;8.820;2023-03-21T14:09:31;96972.78;;;15.06;55.16
70968;BME280;58629;48.808;8.820;2023-03-21T14:11:59;96967.31;;;15.09;57.02
70968;BME280;58629;48.808;8.820;2023-03-21T14:14:29;96966.72;;;15.14;54.84
70968;BME280;58629;48.808;8.820;2023-03-21T14:16:57;96963.38;;;15.23;55.36
70968;BME280;58629;48.808;8.820;2023-03-21T14:19:30;96971.84;;;15.39;56.69
70968;BME280;58629;48.808;8.820;2023-03-21T14:21:57;96968.97;;;15.16;55.10
70968;BME280;58629;48.808;8.820;2023-03-21T14:24:22;96970.00;;;15.18;57.17
70968;BME280;58629;48.808;8.820;2023-03-21T14:26:49;96966.16;;;15.19;56.85
70968;BME280;58629;48.808;8.820;2023-03-21T14:29:27;96965.66;;;15.03;56.10
70968;BME280;58629;48.808;8.820;2023-03-21T14:31:55;96967.75;;;15.08;57.48
70968;BME280;58629;48.808;8.820;2023-03-21T14:34:21;96968.78;;;15.01;56.36
70968;BME280;58629;48.808;8.820;2023-03-21T14:36:47;96973.47;;;14.66;57.03
70968;BME280;58629;48.808;8.820;2023-03-21T14:39:20;96968.78;;;15.01;57.53
70968;BME280;58629;48.808;8.820;2023-03-21T14:41:53;96961.16;;;14.91;56.16
70968;BME280;58629;48.808;8.820;2023-03-21T14:44:33;96963.75;;;15.03;57.90